createdAt,value
2019-03-08T00:00:37.225Z,980.73
2019-03-08T00:01:24.366Z,980.80
2019-03-08T00:02:24.360Z,980.78
2019-03-08T00:03:24.348Z,980.79
2019-03-08T00:04:24.337Z,980.78
2019-03-08T00:05:24.334Z,980.80
2019-03-08T00:06:24.345Z,980.81
2019-03-08T00:07:24.306Z,980.79
2019-03-08T00:08:24.298Z,980.77
2019-03-08T00:09:24.281Z,980.82
2019-03-08T00:10:24.268Z,980.83
2019-03-08T00:11:24.263Z,980.73
2019-03-08T00:12:24.289Z,980.72
2019-03-08T00:13:24.248Z,980.73
2019-03-08T00:14:24.229Z,980.68
2019-03-08T00:15:24.220Z,980.66
2019-03-08T00:16:24.204Z,980.67
2019-03-08T00:17:24.194Z,980.63
2019-03-08T00:18:24.189Z,980.70
2019-03-08T00:19:24.184Z,980.62
2019-03-08T00:20:24.167Z,980.67
2019-03-08T00:21:24.148Z,980.68
2019-03-08T00:22:24.140Z,980.67
2019-03-08T00:23:24.165Z,980.59
2019-03-08T00:24:24.118Z,980.59
2019-03-08T00:25:24.121Z,980.52
2019-03-08T00:26:24.097Z,980.59
2019-03-08T00:27:24.091Z,980.60
2019-03-08T00:28:24.081Z,980.59
2019-03-08T00:29:24.110Z,980.49
2019-03-08T00:30:24.054Z,980.49
2019-03-08T00:31:36.464Z,980.51
2019-03-08T00:32:24.030Z,980.50
2019-03-08T00:33:24.023Z,980.49
2019-03-08T00:34:24.016Z,980.47
2019-03-08T00:35:24.045Z,980.51
2019-03-08T00:36:23.991Z,980.43
2019-03-08T00:37:24.001Z,980.47
2019-03-08T00:38:23.971Z,980.43
2019-03-08T00:39:23.957Z,980.33
2019-03-08T00:40:23.947Z,980.33
2019-03-08T00:41:23.974Z,980.33
2019-03-08T00:42:23.927Z,980.31
2019-03-08T00:43:23.921Z,980.36
2019-03-08T00:44:23.907Z,980.28
2019-03-08T00:45:23.897Z,980.31
2019-03-08T00:46:23.888Z,980.28
2019-03-08T00:47:23.911Z,980.25
2019-03-08T00:48:23.857Z,980.31
2019-03-08T00:49:23.847Z,980.31
2019-03-08T00:50:23.841Z,980.25
2019-03-08T00:51:23.831Z,980.26
2019-03-08T00:52:23.823Z,980.26
2019-03-08T00:53:23.824Z,980.20
2019-03-08T00:54:23.792Z,980.17
2019-03-08T00:55:23.785Z,980.20
2019-03-08T00:56:23.774Z,980.25
2019-03-08T00:57:23.766Z,980.14
2019-03-08T00:58:23.754Z,980.14
2019-03-08T00:59:23.783Z,980.12
2019-03-08T01:00:23.734Z,980.15
2019-03-08T01:01:23.718Z,980.12
2019-03-08T01:02:36.275Z,980.08
2019-03-08T01:03:23.723Z,980.09
2019-03-08T01:04:23.690Z,980.06
2019-03-08T01:05:23.712Z,980.04
2019-03-08T01:06:23.689Z,980.06
2019-03-08T01:07:23.654Z,980.03
2019-03-08T01:08:23.646Z,980.05
2019-03-08T01:09:23.642Z,979.95
2019-03-08T01:10:23.626Z,979.96
2019-03-08T01:11:23.656Z,979.99
2019-03-08T01:12:23.613Z,979.92
2019-03-08T01:13:23.594Z,979.86
2019-03-08T01:14:23.584Z,979.83
2019-03-08T01:15:23.571Z,979.82
2019-03-08T01:16:23.557Z,979.89
2019-03-08T01:17:23.565Z,979.83
2019-03-08T01:18:23.545Z,979.78
2019-03-08T01:19:23.526Z,979.72
2019-03-08T01:20:23.513Z,979.73
2019-03-08T01:21:23.503Z,979.69
2019-03-08T01:22:23.499Z,979.71
2019-03-08T01:23:23.491Z,979.61
2019-03-08T01:24:23.477Z,979.68
2019-03-08T01:25:23.467Z,979.56
2019-03-08T01:26:23.446Z,979.62
2019-03-08T01:27:23.439Z,979.53
2019-03-08T01:28:23.472Z,979.55
2019-03-08T01:29:23.416Z,979.55
2019-03-08T01:30:23.546Z,979.55
2019-03-08T01:31:23.403Z,979.53
2019-03-08T01:32:23.414Z,979.51
2019-03-08T01:33:35.337Z,979.53
2019-03-08T01:34:23.396Z,979.49
2019-03-08T01:35:23.348Z,979.49
2019-03-08T01:36:23.339Z,979.51
2019-03-08T01:37:23.335Z,979.53
2019-03-08T01:38:23.325Z,979.53
2019-03-08T01:39:23.308Z,979.46
2019-03-08T01:40:23.318Z,979.46
2019-03-08T01:41:23.297Z,979.46
2019-03-08T01:42:23.274Z,979.36
2019-03-08T01:43:23.267Z,979.35
2019-03-08T01:44:23.259Z,979.37
2019-03-08T01:45:23.245Z,979.46
2019-03-08T01:46:23.248Z,979.31
2019-03-08T01:47:23.221Z,979.37
2019-03-08T01:48:23.214Z,979.30
2019-03-08T01:49:23.204Z,979.26
2019-03-08T01:50:23.194Z,979.34
2019-03-08T01:51:23.217Z,979.26
2019-03-08T01:52:23.169Z,979.28
2019-03-08T01:53:23.819Z,979.28
2019-03-08T01:54:23.151Z,979.29
2019-03-08T01:55:23.132Z,979.21
2019-03-08T01:56:23.124Z,979.21
2019-03-08T01:57:23.130Z,979.26
2019-03-08T01:58:23.105Z,979.21
2019-03-08T01:59:23.098Z,979.21
2019-03-08T02:00:23.085Z,979.22
2019-03-08T02:01:23.068Z,979.17
2019-03-08T02:02:23.058Z,979.16
2019-03-08T02:03:23.093Z,979.19
2019-03-08T02:04:36.373Z,979.13
2019-03-08T02:05:23.032Z,979.15
2019-03-08T02:06:23.020Z,979.15
2019-03-08T02:07:23.015Z,979.15
2019-03-08T02:08:22.999Z,979.08
2019-03-08T02:09:23.026Z,979.05
2019-03-08T02:10:22.983Z,979.06
2019-03-08T02:11:22.960Z,978.99
2019-03-08T02:12:22.951Z,979.02
2019-03-08T02:13:22.940Z,979.04
2019-03-08T02:14:22.927Z,978.97
2019-03-08T02:15:22.960Z,978.94
2019-03-08T02:16:22.907Z,978.96
2019-03-08T02:17:22.902Z,978.95
2019-03-08T02:18:22.889Z,978.91
2019-03-08T02:19:22.872Z,978.90
2019-03-08T02:20:22.907Z,978.89
2019-03-08T02:21:22.863Z,978.86
2019-03-08T02:22:23.616Z,978.87
2019-03-08T02:23:22.832Z,978.80
2019-03-08T02:24:22.819Z,978.83
2019-03-08T02:25:22.809Z,978.81
2019-03-08T02:26:22.833Z,978.80
2019-03-08T02:27:22.798Z,978.80
2019-03-08T02:28:22.775Z,978.78
2019-03-08T02:29:22.773Z,978.69
2019-03-08T02:30:22.758Z,978.74
2019-03-08T02:31:22.746Z,978.78
2019-03-08T02:32:22.768Z,978.76
2019-03-08T02:33:22.733Z,978.77
2019-03-08T02:34:22.713Z,978.71
2019-03-08T02:35:35.383Z,978.71
2019-03-08T02:36:22.698Z,978.72
2019-03-08T02:37:22.685Z,978.77
2019-03-08T02:38:22.719Z,978.74
2019-03-08T02:39:22.683Z,978.77
2019-03-08T02:40:22.652Z,978.76
2019-03-08T02:41:22.656Z,978.75
2019-03-08T02:42:22.632Z,978.75
2019-03-08T02:43:22.615Z,978.74
2019-03-08T02:44:22.648Z,978.68
2019-03-08T02:45:22.596Z,978.66
2019-03-08T02:46:22.589Z,978.54
2019-03-08T02:47:22.569Z,978.64
2019-03-08T02:48:22.558Z,978.47
2019-03-08T02:49:22.559Z,978.66
2019-03-08T02:50:22.601Z,978.56
2019-03-08T02:51:22.525Z,978.55
2019-03-08T02:52:22.528Z,978.51
2019-03-08T02:53:22.503Z,978.50
2019-03-08T02:54:22.493Z,978.60
2019-03-08T02:55:22.485Z,978.55
2019-03-08T02:56:22.514Z,978.62
2019-03-08T02:57:22.466Z,978.46
2019-03-08T02:58:22.460Z,978.50
2019-03-08T02:59:22.453Z,978.48
2019-03-08T03:00:22.433Z,978.45
2019-03-08T03:01:22.423Z,978.40
2019-03-08T03:02:22.429Z,978.32
2019-03-08T03:03:22.401Z,978.34
2019-03-08T03:04:22.385Z,978.30
2019-03-08T03:05:22.385Z,978.34
2019-03-08T03:06:35.441Z,978.25
2019-03-08T03:07:22.354Z,978.35
2019-03-08T03:08:22.380Z,978.27
2019-03-08T03:09:22.335Z,978.32
2019-03-08T03:10:22.324Z,978.33
2019-03-08T03:11:22.314Z,978.27
2019-03-08T03:12:22.305Z,978.27
2019-03-08T03:13:22.296Z,978.29
2019-03-08T03:14:22.314Z,978.25
2019-03-08T03:15:22.266Z,978.26
2019-03-08T03:16:22.261Z,978.20
2019-03-08T03:17:22.247Z,978.23
2019-03-08T03:18:22.246Z,978.24
2019-03-08T03:19:22.223Z,978.18
2019-03-08T03:20:22.223Z,978.14
2019-03-08T03:21:22.210Z,978.11
2019-03-08T03:22:22.190Z,978.14
2019-03-08T03:23:22.183Z,978.09
2019-03-08T03:24:22.171Z,978.14
2019-03-08T03:25:22.211Z,978.06
2019-03-08T03:26:22.152Z,978.10
2019-03-08T03:27:22.147Z,978.05
2019-03-08T03:28:22.126Z,978.07
2019-03-08T03:29:22.119Z,978.13
2019-03-08T03:30:22.111Z,978.07
2019-03-08T03:31:22.121Z,978.04
2019-03-08T03:32:22.089Z,978.09
2019-03-08T03:33:22.124Z,978.09
2019-03-08T03:34:22.066Z,978.08
2019-03-08T03:35:22.051Z,978.12
2019-03-08T03:36:22.076Z,978.11
2019-03-08T03:37:34.962Z,978.09
2019-03-08T03:38:22.024Z,978.07
2019-03-08T03:39:22.011Z,978.04
2019-03-08T03:40:21.995Z,978.01
2019-03-08T03:41:21.989Z,977.97
2019-03-08T03:42:22.026Z,977.97
2019-03-08T03:43:21.968Z,977.95
2019-03-08T03:44:21.999Z,977.91
2019-03-08T03:45:22.457Z,977.95
2019-03-08T03:46:21.938Z,977.82
2019-03-08T03:47:21.922Z,977.86
2019-03-08T03:48:21.950Z,977.94
2019-03-08T03:49:21.901Z,977.88
2019-03-08T03:50:21.910Z,977.91
2019-03-08T03:51:21.884Z,977.86
2019-03-08T03:52:21.867Z,977.80
2019-03-08T03:53:21.863Z,977.74
2019-03-08T03:54:21.886Z,977.81
2019-03-08T03:55:21.836Z,977.80
2019-03-08T03:56:21.828Z,977.84
2019-03-08T03:57:21.812Z,977.82
2019-03-08T03:58:21.806Z,977.84
2019-03-08T03:59:21.793Z,977.92
2019-03-08T04:00:21.791Z,977.86
2019-03-08T04:01:21.782Z,977.91
2019-03-08T04:02:22.233Z,977.84
2019-03-08T04:03:21.749Z,977.82
2019-03-08T04:04:21.736Z,977.84
2019-03-08T04:05:21.776Z,977.85
2019-03-08T04:06:21.721Z,977.78
2019-03-08T04:07:21.720Z,977.80
2019-03-08T04:08:32.565Z,977.74
2019-03-08T04:09:21.688Z,977.75
2019-03-08T04:10:21.685Z,977.74
2019-03-08T04:11:21.682Z,977.70
2019-03-08T04:12:21.662Z,977.69
2019-03-08T04:13:21.662Z,977.60
2019-03-08T04:14:21.631Z,977.65
2019-03-08T04:15:21.626Z,977.61
2019-03-08T04:16:21.622Z,977.62
2019-03-08T04:17:21.636Z,977.61
2019-03-08T04:18:21.590Z,977.62
2019-03-08T04:19:21.579Z,977.59
2019-03-08T04:20:21.565Z,977.49
2019-03-08T04:21:21.558Z,977.44
2019-03-08T04:22:21.564Z,977.46
2019-03-08T04:23:21.569Z,977.45
2019-03-08T04:24:21.526Z,977.38
2019-03-08T04:25:21.512Z,977.32
2019-03-08T04:26:21.501Z,977.34
2019-03-08T04:27:21.488Z,977.32
2019-03-08T04:28:21.484Z,977.35
2019-03-08T04:29:21.510Z,977.35
2019-03-08T04:30:21.457Z,977.41
2019-03-08T04:31:21.455Z,977.43
2019-03-08T04:32:21.454Z,977.47
2019-03-08T04:33:21.435Z,977.44
2019-03-08T04:34:21.428Z,977.51
2019-03-08T04:35:21.439Z,977.51
2019-03-08T04:36:21.394Z,977.45
2019-03-08T04:37:21.408Z,977.52
2019-03-08T04:38:21.404Z,977.47
2019-03-08T04:39:32.857Z,977.45
2019-03-08T04:40:21.349Z,977.42
2019-03-08T04:41:21.373Z,977.45
2019-03-08T04:42:21.323Z,977.39
2019-03-08T04:43:21.321Z,977.27
2019-03-08T04:44:21.301Z,977.22
2019-03-08T04:45:21.290Z,977.31
2019-03-08T04:46:21.280Z,977.32
2019-03-08T04:47:21.296Z,977.35
2019-03-08T04:48:21.260Z,977.37
2019-03-08T04:49:21.250Z,977.37
2019-03-08T04:50:21.240Z,977.45
2019-03-08T04:51:21.231Z,977.44
2019-03-08T04:52:21.223Z,977.46
2019-03-08T04:53:21.232Z,977.43
2019-03-08T04:54:21.189Z,977.48
2019-03-08T04:55:21.185Z,977.46
2019-03-08T04:56:21.173Z,977.43
2019-03-08T04:57:21.156Z,977.43
2019-03-08T04:58:21.147Z,977.49
2019-03-08T04:59:21.181Z,977.47
2019-03-08T05:00:21.125Z,977.40
2019-03-08T05:01:21.137Z,977.43
2019-03-08T05:02:21.116Z,977.42
2019-03-08T05:03:21.095Z,977.36
2019-03-08T05:04:21.084Z,977.29
2019-03-08T05:05:21.097Z,977.29
2019-03-08T05:06:21.068Z,977.29
2019-03-08T05:07:21.055Z,977.29
2019-03-08T05:08:21.042Z,977.26
2019-03-08T05:09:21.031Z,977.18
2019-03-08T05:10:32.592Z,977.13
2019-03-08T05:11:21.007Z,977.18
2019-03-08T05:12:21.001Z,977.18
2019-03-08T05:13:20.993Z,977.15
2019-03-08T05:14:20.975Z,977.15
2019-03-08T05:15:21.551Z,977.19
2019-03-08T05:16:20.977Z,977.12
2019-03-08T05:17:20.940Z,977.19
2019-03-08T05:18:20.934Z,977.19
2019-03-08T05:19:20.916Z,977.24
2019-03-08T05:20:20.914Z,977.20
2019-03-08T05:21:20.904Z,977.16
2019-03-08T05:22:20.937Z,977.16
2019-03-08T05:23:20.878Z,977.17
2019-03-08T05:24:20.866Z,977.13
2019-03-08T05:25:20.853Z,977.19
2019-03-08T05:26:20.841Z,977.11
2019-03-08T05:27:20.842Z,977.12
2019-03-08T05:28:20.867Z,977.16
2019-03-08T05:29:23.625Z,977.13
2019-03-08T05:30:20.797Z,977.10
2019-03-08T05:31:20.785Z,977.11
2019-03-08T05:32:20.782Z,977.18
2019-03-08T05:33:20.768Z,977.04
2019-03-08T05:34:20.866Z,977.10
2019-03-08T05:35:20.742Z,977.09
2019-03-08T05:36:20.737Z,977.06
2019-03-08T05:37:20.723Z,977.04
2019-03-08T05:38:20.712Z,977.09
2019-03-08T05:39:20.702Z,977.07
2019-03-08T05:40:20.730Z,977.05
2019-03-08T05:41:33.971Z,977.06
2019-03-08T05:42:20.662Z,977.05
2019-03-08T05:43:20.659Z,976.97
2019-03-08T05:44:20.644Z,977.02
2019-03-08T05:45:20.643Z,976.98
2019-03-08T05:46:20.652Z,976.92
2019-03-08T05:47:20.611Z,977.00
2019-03-08T05:48:20.615Z,976.99
2019-03-08T05:49:20.590Z,976.94
2019-03-08T05:50:20.584Z,977.03
2019-03-08T05:51:20.566Z,977.04
2019-03-08T05:52:20.594Z,977.03
2019-03-08T05:53:20.562Z,977.06
2019-03-08T05:54:20.529Z,977.04
2019-03-08T05:55:20.518Z,977.02
2019-03-08T05:56:20.569Z,977.01
2019-03-08T05:57:20.505Z,976.98
2019-03-08T05:58:21.084Z,976.99
2019-03-08T05:59:20.475Z,977.02
2019-03-08T06:00:20.481Z,976.99
2019-03-08T06:01:20.469Z,977.00
2019-03-08T06:02:20.445Z,977.00
2019-03-08T06:03:20.473Z,976.97
2019-03-08T06:04:20.420Z,976.98
2019-03-08T06:05:20.415Z,976.98
2019-03-08T06:06:20.396Z,976.99
2019-03-08T06:07:20.390Z,976.96
2019-03-08T06:08:20.386Z,976.96
2019-03-08T06:09:20.404Z,976.92
2019-03-08T06:10:20.357Z,976.89
2019-03-08T06:11:20.373Z,976.92
2019-03-08T06:12:32.721Z,976.91
2019-03-08T06:13:20.319Z,976.97
2019-03-08T06:14:20.311Z,976.98
2019-03-08T06:15:20.306Z,977.00
2019-03-08T06:16:20.310Z,976.96
2019-03-08T06:17:20.273Z,976.93
2019-03-08T06:18:20.267Z,976.91
2019-03-08T06:19:20.259Z,977.02
2019-03-08T06:20:20.427Z,977.02
2019-03-08T06:21:20.243Z,976.97
2019-03-08T06:22:20.222Z,976.91
2019-03-08T06:23:20.212Z,977.01
2019-03-08T06:24:20.198Z,977.01
2019-03-08T06:25:20.199Z,976.98
2019-03-08T06:26:20.283Z,977.00
2019-03-08T06:27:20.177Z,977.01
2019-03-08T06:28:20.188Z,976.95
2019-03-08T06:29:20.151Z,976.97
2019-03-08T06:30:21.111Z,976.98
2019-03-08T06:31:20.121Z,976.99
2019-03-08T06:32:20.177Z,977.01
2019-03-08T06:33:20.107Z,977.00
2019-03-08T06:34:20.090Z,977.01
2019-03-08T06:35:20.079Z,977.04
2019-03-08T06:36:20.112Z,977.07
2019-03-08T06:37:20.069Z,977.12
2019-03-08T06:38:20.067Z,977.10
2019-03-08T06:39:20.032Z,977.06
2019-03-08T06:40:20.022Z,977.09
2019-03-08T06:41:20.007Z,977.19
2019-03-08T06:42:19.997Z,977.21
2019-03-08T06:43:32.694Z,977.11
2019-03-08T06:44:19.982Z,977.15
2019-03-08T06:45:19.965Z,977.12
2019-03-08T06:46:19.951Z,977.14
2019-03-08T06:47:19.965Z,977.23
2019-03-08T06:48:19.932Z,977.21
2019-03-08T06:49:19.968Z,977.17
2019-03-08T06:50:19.908Z,977.17
2019-03-08T06:51:19.910Z,977.19
2019-03-08T06:52:19.990Z,977.22
2019-03-08T06:53:20.009Z,977.22
2019-03-08T06:54:19.871Z,977.18
2019-03-08T06:55:19.908Z,977.32
2019-03-08T06:56:19.930Z,977.33
2019-03-08T06:57:20.555Z,977.33
2019-03-08T06:58:19.908Z,977.33
2019-03-08T06:59:19.828Z,977.38
2019-03-08T07:00:19.828Z,977.32
2019-03-08T07:01:20.717Z,977.34
2019-03-08T07:02:19.787Z,977.45
2019-03-08T07:03:19.784Z,977.28
2019-03-08T07:04:19.768Z,977.26
2019-03-08T07:05:19.750Z,977.33
2019-03-08T07:06:19.757Z,977.27
2019-03-08T07:07:19.832Z,977.33
2019-03-08T07:08:19.712Z,977.28
2019-03-08T07:09:19.708Z,977.29
2019-03-08T07:10:19.702Z,977.33
2019-03-08T07:11:19.683Z,977.35
2019-03-08T07:12:19.678Z,977.36
2019-03-08T07:13:19.722Z,977.37
2019-03-08T07:14:32.184Z,977.37
2019-03-08T07:15:19.645Z,977.32
2019-03-08T07:16:19.631Z,977.37
2019-03-08T07:17:20.574Z,977.39
2019-03-08T07:18:19.653Z,977.37
2019-03-08T07:19:19.623Z,977.35
2019-03-08T07:20:19.591Z,977.37
2019-03-08T07:21:19.584Z,977.42
2019-03-08T07:22:19.563Z,977.44
2019-03-08T07:23:27.607Z,977.38
2019-03-08T07:24:20.675Z,977.49
2019-03-08T07:25:19.538Z,977.50
2019-03-08T07:26:19.522Z,977.47
2019-03-08T07:27:19.514Z,977.47
2019-03-08T07:28:19.499Z,977.61
2019-03-08T07:29:20.187Z,977.52
2019-03-08T07:30:19.521Z,977.51
2019-03-08T07:31:20.250Z,977.54
2019-03-08T07:32:19.456Z,977.55
2019-03-08T07:33:19.454Z,977.61
2019-03-08T07:34:19.563Z,977.62
2019-03-08T07:35:19.422Z,977.69
2019-03-08T07:36:19.450Z,977.64
2019-03-08T07:37:19.401Z,977.60
2019-03-08T07:38:19.397Z,977.65
2019-03-08T07:39:19.416Z,977.65
2019-03-08T07:40:19.368Z,977.72
2019-03-08T07:41:19.362Z,977.66
2019-03-08T07:42:19.500Z,977.63
2019-03-08T07:43:19.329Z,977.67
2019-03-08T07:44:19.332Z,977.70
2019-03-08T07:45:32.603Z,977.67
2019-03-08T07:46:19.300Z,977.70
2019-03-08T07:47:19.293Z,977.78
2019-03-08T07:48:19.398Z,977.75
2019-03-08T07:49:19.306Z,977.66
2019-03-08T07:50:19.257Z,977.66
2019-03-08T07:51:19.308Z,977.69
2019-03-08T07:52:19.232Z,977.67
2019-03-08T07:53:20.209Z,977.73
2019-03-08T07:54:19.206Z,977.71
2019-03-08T07:55:19.204Z,977.73
2019-03-08T07:56:19.188Z,977.72
2019-03-08T07:57:19.807Z,977.79
2019-03-08T07:58:19.161Z,977.73
2019-03-08T07:59:19.190Z,977.77
2019-03-08T08:00:19.142Z,977.83
2019-03-08T08:01:19.170Z,977.71
2019-03-08T08:02:19.130Z,977.73
2019-03-08T08:03:19.110Z,977.74
2019-03-08T08:04:19.110Z,977.76
2019-03-08T08:05:19.132Z,977.69
2019-03-08T08:06:19.076Z,977.70
2019-03-08T08:07:19.067Z,977.70
2019-03-08T08:08:19.090Z,977.68
2019-03-08T08:09:19.042Z,977.67
2019-03-08T08:10:19.037Z,977.75
2019-03-08T08:11:19.064Z,977.72
2019-03-08T08:12:19.012Z,977.76
2019-03-08T08:13:19.007Z,977.78
2019-03-08T08:14:19.024Z,977.75
2019-03-08T08:15:18.980Z,977.79
2019-03-08T08:16:32.265Z,977.77
2019-03-08T08:17:18.965Z,977.85
2019-03-08T08:18:18.949Z,977.82
2019-03-08T08:19:18.947Z,977.78
2019-03-08T08:20:18.923Z,977.84
2019-03-08T08:21:18.913Z,977.71
2019-03-08T08:22:18.992Z,977.74
2019-03-08T08:23:18.890Z,977.74
2019-03-08T08:24:18.881Z,977.77
2019-03-08T08:25:18.871Z,977.71
2019-03-08T08:26:18.864Z,977.84
2019-03-08T08:27:18.848Z,977.89
2019-03-08T08:28:18.839Z,977.73
2019-03-08T08:29:18.824Z,977.80
2019-03-08T08:30:18.816Z,977.78
2019-03-08T08:31:18.808Z,977.82
2019-03-08T08:32:18.791Z,977.87
2019-03-08T08:33:18.815Z,977.96
2019-03-08T08:34:18.767Z,977.95
2019-03-08T08:35:18.752Z,977.99
2019-03-08T08:36:18.738Z,978.15
2019-03-08T08:37:18.731Z,978.13
2019-03-08T08:38:18.718Z,978.14
2019-03-08T08:39:18.791Z,978.11
2019-03-08T08:40:18.703Z,978.19
2019-03-08T08:41:18.693Z,978.07
2019-03-08T08:42:18.675Z,978.12
2019-03-08T08:43:18.669Z,978.15
2019-03-08T08:44:18.663Z,978.12
2019-03-08T08:45:18.694Z,978.08
2019-03-08T08:46:18.631Z,978.16
2019-03-08T08:47:30.906Z,978.18
2019-03-08T08:48:18.606Z,978.14
2019-03-08T08:49:18.598Z,978.19
2019-03-08T08:50:18.584Z,978.07
2019-03-08T08:51:18.577Z,978.16
2019-03-08T08:52:18.565Z,978.16
2019-03-08T08:53:18.579Z,978.18
2019-03-08T08:54:18.548Z,978.26
2019-03-08T08:55:18.536Z,978.24
2019-03-08T08:56:18.649Z,978.22
2019-03-08T08:57:18.525Z,978.27
2019-03-08T08:58:18.500Z,978.28
2019-03-08T08:59:18.487Z,978.34
2019-03-08T09:00:18.481Z,978.32
2019-03-08T09:01:18.477Z,978.35
2019-03-08T09:02:18.455Z,978.36
2019-03-08T09:03:18.451Z,978.29
2019-03-08T09:04:18.426Z,978.28
2019-03-08T09:05:18.414Z,978.32
2019-03-08T09:06:18.414Z,978.32
2019-03-08T09:07:18.438Z,978.26
2019-03-08T09:08:18.390Z,978.33
2019-03-08T09:09:18.372Z,978.31
2019-03-08T09:10:18.360Z,978.36
2019-03-08T09:11:18.376Z,978.37
2019-03-08T09:12:18.339Z,978.39
2019-03-08T09:13:18.363Z,978.35
2019-03-08T09:14:18.321Z,978.40
2019-03-08T09:15:18.319Z,978.43
2019-03-08T09:16:19.285Z,978.47
2019-03-08T09:17:18.285Z,978.43
2019-03-08T09:18:30.345Z,978.38
2019-03-08T09:19:18.257Z,978.41
2019-03-08T09:20:18.251Z,978.40
2019-03-08T09:21:18.344Z,978.41
2019-03-08T09:22:18.223Z,978.39
2019-03-08T09:23:18.220Z,978.34
2019-03-08T09:24:18.250Z,978.42
2019-03-08T09:25:18.206Z,978.33
2019-03-08T09:26:18.181Z,978.42
2019-03-08T09:27:18.172Z,978.33
2019-03-08T09:28:18.157Z,978.35
2019-03-08T09:29:18.150Z,978.39
2019-03-08T09:30:18.184Z,978.38
2019-03-08T09:31:18.148Z,978.34
2019-03-08T09:32:18.130Z,978.41
2019-03-08T09:33:18.102Z,978.44
2019-03-08T09:34:18.091Z,978.42
2019-03-08T09:35:18.089Z,978.47
2019-03-08T09:36:18.115Z,978.39
2019-03-08T09:37:18.054Z,978.47
2019-03-08T09:38:18.044Z,978.41
2019-03-08T09:39:18.046Z,978.40
2019-03-08T09:40:18.027Z,978.34
2019-03-08T09:41:18.016Z,978.36
2019-03-08T09:42:18.051Z,978.46
2019-03-08T09:43:18.013Z,978.40
2019-03-08T09:44:18.015Z,978.38
2019-03-08T09:45:17.968Z,978.35
2019-03-08T09:46:17.953Z,978.35
2019-03-08T09:47:17.952Z,978.27
2019-03-08T09:48:17.942Z,978.42
2019-03-08T09:49:31.706Z,978.36
2019-03-08T09:50:17.911Z,978.37
2019-03-08T09:51:18.014Z,978.30
2019-03-08T09:52:17.882Z,978.36
2019-03-08T09:53:17.912Z,978.31
2019-03-08T09:54:18.339Z,978.40
2019-03-08T09:55:17.857Z,978.40
2019-03-08T09:56:17.854Z,978.37
2019-03-08T09:57:17.826Z,978.36
2019-03-08T09:58:17.819Z,978.39
2019-03-08T09:59:19.479Z,978.42
2019-03-08T10:00:17.820Z,978.42
2019-03-08T10:01:17.785Z,978.45
2019-03-08T10:02:17.781Z,978.42
2019-03-08T10:03:17.807Z,978.50
2019-03-08T10:04:18.006Z,978.40
2019-03-08T10:05:17.742Z,978.43
2019-03-08T10:06:17.731Z,978.41
2019-03-08T10:07:17.714Z,978.44
2019-03-08T10:08:17.709Z,978.43
2019-03-08T10:09:17.697Z,978.45
2019-03-08T10:10:17.746Z,978.38
2019-03-08T10:11:17.676Z,978.44
2019-03-08T10:12:17.679Z,978.40
2019-03-08T10:13:17.663Z,978.45
2019-03-08T10:14:17.641Z,978.42
2019-03-08T10:15:17.637Z,978.43
2019-03-08T10:16:17.659Z,978.43
2019-03-08T10:17:17.612Z,978.49
2019-03-08T10:18:17.597Z,978.45
2019-03-08T10:19:17.638Z,978.45
2019-03-08T10:20:30.450Z,978.39
2019-03-08T10:21:17.585Z,978.46
2019-03-08T10:22:17.568Z,978.45
2019-03-08T10:23:20.203Z,978.36
2019-03-08T10:24:17.548Z,978.43
2019-03-08T10:25:17.512Z,978.44
2019-03-08T10:26:17.507Z,978.37
2019-03-08T10:27:17.504Z,978.37
2019-03-08T10:28:17.535Z,978.45
2019-03-08T10:29:17.474Z,978.48
2019-03-08T10:30:17.465Z,978.39
2019-03-08T10:31:17.466Z,978.43
2019-03-08T10:32:17.438Z,978.43
2019-03-08T10:33:17.433Z,978.47
2019-03-08T10:34:17.669Z,978.42
2019-03-08T10:35:23.780Z,978.48
2019-03-08T10:36:18.393Z,978.41
2019-03-08T10:37:17.389Z,978.43
2019-03-08T10:38:22.530Z,978.37
2019-03-08T10:39:18.415Z,978.34
2019-03-08T10:40:17.351Z,978.40
2019-03-08T10:41:17.360Z,978.45
2019-03-08T10:42:17.623Z,978.45
2019-03-08T10:43:17.312Z,978.44
2019-03-08T10:44:17.305Z,978.45
2019-03-08T10:45:17.322Z,978.41
2019-03-08T10:46:17.292Z,978.40
2019-03-08T10:47:17.268Z,978.46
2019-03-08T10:48:17.261Z,978.42
2019-03-08T10:49:17.247Z,978.36
2019-03-08T10:50:17.255Z,978.37
2019-03-08T10:51:30.467Z,978.37
2019-03-08T10:52:18.121Z,978.39
2019-03-08T10:53:17.280Z,978.42
2019-03-08T10:54:17.194Z,978.38
2019-03-08T10:55:17.227Z,978.30
2019-03-08T10:56:17.212Z,978.44
2019-03-08T10:57:17.237Z,978.43
2019-03-08T10:58:17.224Z,978.42
2019-03-08T10:59:17.134Z,978.40
2019-03-08T11:00:17.121Z,978.38
2019-03-08T11:01:17.113Z,978.42
2019-03-08T11:02:17.101Z,978.41
2019-03-08T11:03:24.504Z,978.37
2019-03-08T11:04:17.082Z,978.43
2019-03-08T11:05:17.070Z,978.41
2019-03-08T11:06:17.053Z,978.43
2019-03-08T11:07:17.044Z,978.44
2019-03-08T11:08:17.534Z,978.40
2019-03-08T11:09:17.021Z,978.46
2019-03-08T11:10:17.074Z,978.41
2019-03-08T11:11:16.997Z,978.40
2019-03-08T11:12:16.988Z,978.44
2019-03-08T11:13:16.978Z,978.38
2019-03-08T11:14:17.022Z,978.36
2019-03-08T11:15:24.099Z,978.42
2019-03-08T11:16:17.945Z,978.37
2019-03-08T11:17:16.933Z,978.32
2019-03-08T11:18:16.923Z,978.31
2019-03-08T11:19:16.915Z,978.37
2019-03-08T11:20:16.945Z,978.35
2019-03-08T11:21:16.912Z,978.41
2019-03-08T11:22:16.872Z,978.36
2019-03-08T11:23:16.870Z,978.39
2019-03-08T11:24:16.856Z,978.33
2019-03-08T11:25:16.837Z,978.36
2019-03-08T11:26:16.847Z,978.34
2019-03-08T11:27:16.816Z,978.39
2019-03-08T11:28:21.119Z,978.33
2019-03-08T11:29:16.795Z,978.33
2019-03-08T11:30:16.802Z,978.33
2019-03-08T11:31:16.780Z,978.32
2019-03-08T11:32:23.013Z,978.30
2019-03-08T11:33:17.754Z,978.29
2019-03-08T11:34:29.071Z,978.23
2019-03-08T11:35:16.726Z,978.19
2019-03-08T11:36:16.718Z,978.24
2019-03-08T11:37:16.751Z,978.25
2019-03-08T11:38:16.696Z,978.21
2019-03-08T11:39:16.681Z,978.25
2019-03-08T11:40:16.757Z,978.24
2019-03-08T11:41:16.662Z,978.15
2019-03-08T11:42:16.656Z,978.15
2019-03-08T11:43:16.674Z,978.16
2019-03-08T11:44:16.626Z,978.21
2019-03-08T11:45:16.615Z,978.18
2019-03-08T11:46:16.608Z,978.16
2019-03-08T11:47:16.607Z,978.15
2019-03-08T11:48:17.196Z,978.10
2019-03-08T11:49:16.605Z,978.07
2019-03-08T11:50:16.574Z,978.06
2019-03-08T11:51:16.547Z,978.05
2019-03-08T11:52:16.554Z,978.11
2019-03-08T11:53:16.536Z,978.03
2019-03-08T11:54:16.520Z,978.04
2019-03-08T11:55:16.529Z,978.03
2019-03-08T11:56:16.502Z,978.04
2019-03-08T11:57:16.481Z,978.05
2019-03-08T11:58:16.466Z,978.05
2019-03-08T11:59:16.457Z,978.05
2019-03-08T12:00:16.448Z,978.05
2019-03-08T12:01:16.562Z,978.04
2019-03-08T12:02:16.427Z,977.98
2019-03-08T12:03:16.432Z,977.98
2019-03-08T12:04:16.402Z,977.90
2019-03-08T12:05:29.245Z,977.88
2019-03-08T12:06:16.375Z,977.89
2019-03-08T12:07:16.439Z,977.87
2019-03-08T12:08:16.381Z,977.90
2019-03-08T12:09:16.346Z,977.83
2019-03-08T12:10:16.330Z,977.89
2019-03-08T12:11:16.609Z,977.80
2019-03-08T12:12:16.315Z,977.80
2019-03-08T12:13:16.347Z,977.88
2019-03-08T12:14:16.284Z,977.83
2019-03-08T12:15:16.282Z,977.91
2019-03-08T12:16:16.267Z,977.84
2019-03-08T12:17:16.253Z,977.97
2019-03-08T12:18:16.279Z,977.89
2019-03-08T12:19:16.274Z,977.92
2019-03-08T12:20:16.228Z,977.84
2019-03-08T12:21:16.211Z,977.80
2019-03-08T12:22:16.292Z,977.85
2019-03-08T12:23:16.193Z,977.83
2019-03-08T12:24:16.180Z,977.85
2019-03-08T12:25:16.216Z,977.84
2019-03-08T12:26:16.157Z,977.85
2019-03-08T12:27:16.147Z,977.84
2019-03-08T12:28:16.138Z,977.80